Overview Statistics Trail Chart Weather Telemetry Raw packets
 

This is the latest recevied weather packets stored in our database for station/object SP6FIG. If no packets are shown the sender has not sent any weather packets the latest 10 day(s).

<< 13 14 15 16 17 18 19 >>
Time Temp. Humidity Pressure Rain* Wind** Luminosity Snow
1777464189 21.67° C 26% 978.5 hPa - - - -
1777463590 21.67° C 26% 978.4 hPa - - - -
1777462989 20.56° C 21% 978.4 hPa - - - -
1777462389 20° C 28% 978.5 hPa - - - -
1777461791 22.22° C 36% 978.5 hPa - - - -
1777461190 22.22° C 35% 978.5 hPa - - - -
1777460589 21.67° C 30% 978.4 hPa - - - -
1777459989 21.67° C 29% 978.6 hPa - - - -
1777459389 21.67° C 29% 978.3 hPa - - - -
1777458790 21.67° C 30% 978.4 hPa - - - -
1777458189 21.67° C 30% 978.5 hPa - - - -
1777457589 21.67° C 31% 978.4 hPa - - - -
1777456989 21.67° C 30% 978.5 hPa - - - -
1777456390 21.67° C 31% 978.5 hPa - - - -
1777455789 21.67° C 30% 978.6 hPa - - - -
1777455189 21.67° C 31% 978.5 hPa - - - -
1777454590 21.67° C 31% 978.6 hPa - - - -
1777453989 21.11° C 31% 978.6 hPa - - - -
1777453389 21.11° C 31% 978.6 hPa - - - -
1777452790 21.67° C 32% 978.6 hPa - - - -
1777452190 21.67° C 32% 978.7 hPa - - - -
1777451589 21.67° C 33% 978.6 hPa - - - -
1777450989 22.22° C 33% 978.7 hPa - - - -
1777450389 21.67° C 33% 978.7 hPa - - - -
1777449789 21.67° C 34% 978.6 hPa - - - -

* Rain since midnight (hover to see other rain measurements)
** Current wind speed in m/s (hover to see current wind gust speed)